Time;durP1;ratioP1;P1;durP2;ratioP2;P2;SDS_P1;SDS_P2;PMS_P1;PMS_P2;Temp;Humidity;BMP_temperature;BMP_pressure;BME280_temperature;BME280_humidity;BME280_pressure;Samples;Min_cycle;Max_cycle;Signal;HPM_P1;HPM_P2
2021/12/16 00:02:59;;;;;;;46.90;12.00;;;;;;;6.81;100.00;99555.19;5142759;27;20662;-65
2021/12/16 00:05:43;;;;;;;55.03;14.87;;;;;;;6.84;100.00;99550.31;5135613;27;20608;-67
2021/12/16 00:08:17;;;;;;;43.93;15.30;;;;;;;6.77;100.00;99546.00;5145201;27;20608;-66
2021/12/16 00:10:53;;;;;;;40.43;13.00;;;;;;;6.86;100.00;99555.44;5146159;27;20609;-65
2021/12/16 00:30:05;;;;;;;38.80;9.80;;;;;;;6.77;100.00;99551.31;5145825;27;20603;-66
2021/12/16 00:32:44;;;;;;;22.00;9.10;;;;;;;6.77;100.00;99551.31;5135723;27;20722;-67
2021/12/16 00:35:11;;;;;;;59.10;11.57;;;;;;;6.80;100.00;99541.13;5144716;27;20696;-66
2021/12/16 00:37:38;;;;;;;38.37;10.97;;;;;;;6.84;100.00;99541.56;5145926;27;20603;-66
2021/12/16 00:40:07;;;;;;;30.43;10.47;;;;;;;6.89;100.00;99553.22;5143874;27;20660;-68
2021/12/16 00:42:43;;;;;;;42.43;12.37;;;;;;;6.78;100.00;99553.75;5142064;27;20647;-67
2021/12/16 00:45:37;;;;;;;28.70;11.10;;;;;;;6.71;100.00;99562.75;5144533;27;20619;-66
2021/12/16 00:48:20;;;;;;;35.60;11.00;;;;;;;6.77;100.00;99551.31;5143631;27;20619;-66
2021/12/16 00:56:16;;;;;;;34.10;10.43;;;;;;;6.90;100.00;99559.34;5145270;27;20632;-67
2021/12/16 00:58:50;;;;;;;48.10;11.27;;;;;;;6.93;100.00;99556.28;5145124;27;21373;-67
2021/12/16 01:01:32;;;;;;;44.80;12.87;;;;;;;6.95;100.00;99549.75;5133396;27;20654;-66
2021/12/16 01:04:20;;;;;;;25.10;10.47;;;;;;;6.96;100.00;99556.69;5142786;27;20614;-66
2021/12/16 01:07:03;;;;;;;64.43;12.40;;;;;;;6.96;100.00;99561.22;5145132;27;20622;-66
2021/12/16 01:34:54;;;;;;;42.83;11.10;;;;;;;6.81;100.00;99561.34;5141296;27;20624;-67
2021/12/16 01:40:26;;;;;;;27.87;12.17;;;;;;;6.85;100.00;99553.78;5142683;27;20951;-67
2021/12/16 01:45:58;;;;;;;63.97;13.60;;;;;;;6.87;100.00;99551.78;5140996;27;20604;-66
2021/12/16 01:51:26;;;;;;;35.07;10.47;;;;;;;6.86;100.00;99539.50;5132973;27;21064;-67
2021/12/16 01:54:34;;;;;;;35.93;11.77;;;;;;;6.83;100.00;99551.34;5140721;27;20671;-66
2021/12/16 01:57:08;;;;;;;44.10;11.80;;;;;;;6.81;100.00;99553.38;5142682;27;20619;-67
2021/12/16 01:59:39;;;;;;;38.10;11.63;;;;;;;6.77;100.00;99561.94;5140713;27;20611;-67
2021/12/16 02:02:15;;;;;;;28.10;11.97;;;;;;;6.80;100.00;99556.25;5142589;27;20648;-67
2021/12/16 02:05:07;;;;;;;45.07;11.80;;;;;;;6.84;100.00;99562.78;5144114;27;21293;-66
2021/12/16 02:07:49;;;;;;;47.57;11.27;;;;;;;6.72;100.00;99545.78;5133692;27;20616;-66
2021/12/16 02:10:22;;;;;;;44.33;12.03;;;;;;;6.65;100.00;99553.72;5125462;27;20607;-66
2021/12/16 02:12:57;;;;;;;44.77;10.43;;;;;;;6.68;100.00;99550.69;5144040;27;20587;-68
2021/12/16 02:29:17;;;;;;;75.80;11.80;;;;;;;6.93;100.00;99556.28;5099663;27;20621;-66
2021/12/16 02:31:55;;;;;;;33.53;10.23;;;;;;;6.93;100.00;99541.16;5143516;27;20615;-66
2021/12/16 02:34:30;;;;;;;37.67;9.80;;;;;;;6.93;100.00;99554.44;5132223;27;20616;-65
2021/12/16 02:36:58;;;;;;;43.40;11.27;;;;;;;6.92;100.00;99546.69;5140432;27;20631;-66
2021/12/16 02:39:29;;;;;;;38.17;10.43;;;;;;;6.93;100.00;99540.34;5143315;27;20618;-66
2021/12/16 02:41:59;;;;;;;40.80;9.83;;;;;;;6.80;100.00;99533.16;5142803;27;21151;-66
2021/12/16 02:44:33;;;;;;;30.67;9.70;;;;;;;6.79;100.00;99544.78;5139886;27;20722;-66
2021/12/16 02:49:47;;;;;;;43.20;10.10;;;;;;;6.85;100.00;99543.16;5131434;27;20601;-66
2021/12/16 02:52:17;;;;;;;26.00;8.80;;;;;;;6.80;100.00;99541.13;5142937;27;20675;-67
2021/12/16 02:54:44;;;;;;;39.17;9.47;;;;;;;6.75;100.00;99553.34;5143249;27;20649;-65
2021/12/16 02:57:12;;;;;;;22.37;10.10;;;;;;;6.85;100.00;99549.31;5140193;27;20608;-65
2021/12/16 02:59:40;;;;;;;19.20;8.73;;;;;;;6.90;100.00;99554.81;5139713;27;20596;-66
2021/12/16 03:02:12;;;;;;;33.30;8.90;;;;;;;6.85;100.00;99548.47;5141354;27;20628;-66
2021/12/16 03:04:41;;;;;;;34.03;8.50;;;;;;;6.78;100.00;99544.97;5143069;27;20608;-66
2021/12/16 03:07:11;;;;;;;33.53;8.87;;;;;;;6.87;100.00;99541.94;5140533;27;20600;-66
2021/12/16 03:12:45;;;;;;;58.50;9.50;;;;;;;6.86;100.00;99550.13;5132073;27;20616;-66
2021/12/16 03:15:23;;;;;;;42.57;6.73;;;;;;;6.74;100.00;99552.53;5142005;27;20608;-66
2021/12/16 03:17:57;;;;;;;35.10;8.63;;;;;;;6.77;100.00;99551.31;5142733;27;21242;-67
2021/12/16 03:20:33;;;;;;;24.63;6.97;;;;;;;6.84;100.00;99552.19;5127125;27;20621;-66
2021/12/16 03:23:14;;;;;;;52.00;9.60;;;;;;;6.91;100.00;99553.00;5141470;27;20655;-66
2021/12/16 03:25:56;;;;;;;38.10;8.13;;;;;;;6.91;100.00;99543.19;5139226;27;20604;-66
2021/12/16 03:28:58;;;;;;;23.00;8.20;;;;;;;6.88;100.00;99546.25;5131192;27;20604;-67
2021/12/16 03:37:15;;;;;;;35.30;8.20;;;;;;;6.84;100.00;99536.25;5139212;28;20623;-66
2021/12/16 03:39:46;;;;;;;42.07;7.53;;;;;;;6.89;100.00;99541.75;5139056;28;20719;-65
2021/12/16 03:42:18;;;;;;;32.73;7.20;;;;;;;6.95;100.00;99547.09;5141750;28;20639;-66
2021/12/16 03:44:53;;;;;;;41.97;9.10;;;;;;;6.94;100.00;99550.75;5142533;28;20628;-66
2021/12/16 03:47:25;;;;;;;32.53;7.60;;;;;;;6.89;100.00;99552.38;5130760;28;20615;-66
2021/12/16 03:49:52;;;;;;;13.73;7.13;;;;;;;6.91;100.00;99547.69;5131114;28;20615;-66
2021/12/16 03:52:19;;;;;;;29.00;8.90;;;;;;;6.94;100.00;99558.72;5130613;28;20604;-66
2021/12/16 03:54:52;;;;;;;65.00;10.73;;;;;;;6.90;100.00;99554.81;5138792;28;20626;-66
2021/12/16 03:57:23;;;;;;;45.80;8.33;;;;;;;6.82;100.00;99556.84;5130372;28;20725;-67
2021/12/16 03:59:51;;;;;;;29.03;7.80;;;;;;;6.89;100.00;99563.00;5138896;28;20604;-67
2021/12/16 04:02:21;;;;;;;67.03;9.53;;;;;;;6.92;100.00;99558.13;5130245;28;20650;-66
2021/12/16 04:04:51;;;;;;;38.67;8.87;;;;;;;6.95;100.00;99565.69;5138708;28;20650;-65
2021/12/16 04:07:19;;;;;;;36.27;8.00;;;;;;;6.95;100.00;99572.84;5130272;28;20608;-67
2021/12/16 04:09:46;;;;;;;39.80;7.30;;;;;;;6.93;100.00;99565.06;5138656;28;20612;-66
2021/12/16 04:12:19;;;;;;;41.77;7.60;;;;;;;6.89;100.00;99570.97;5141640;28;20599;-66
2021/12/16 04:14:49;;;;;;;52.77;8.73;;;;;;;6.88;100.00;99577.31;5142314;28;20599;-66
2021/12/16 04:17:17;;;;;;;37.77;7.40;;;;;;;6.91;100.00;99584.88;5138798;28;20618;-66
2021/12/16 04:19:44;;;;;;;41.57;8.10;;;;;;;6.83;100.00;99585.06;5130714;28;20600;-66
2021/12/16 04:22:16;;;;;;;23.47;6.40;;;;;;;6.83;100.00;99583.22;5140853;28;20632;-66
2021/12/16 04:24:46;;;;;;;53.30;9.30;;;;;;;6.87;100.00;99584.44;5142043;28;20600;-66
2021/12/16 04:27:14;;;;;;;18.03;7.13;;;;;;;6.83;100.00;99582.41;5139277;28;20604;-66
2021/12/16 04:29:41;;;;;;;35.23;6.40;;;;;;;6.85;100.00;99590.97;5138418;28;20596;-66
2021/12/16 04:32:09;;;;;;;22.90;7.40;;;;;;;6.87;100.00;99583.66;5140323;28;20596;-65
2021/12/16 04:34:36;;;;;;;56.50;9.23;;;;;;;6.87;100.00;99587.09;5141994;28;20615;-66
2021/12/16 04:37:04;;;;;;;32.57;7.97;;;;;;;6.89;100.00;99594.88;5140417;28;20583;-65
2021/12/16 04:39:33;;;;;;;65.03;9.60;;;;;;;6.89;100.00;99594.88;5138483;28;20626;-66
2021/12/16 04:42:00;;;;;;;19.13;7.13;;;;;;;6.78;100.00;99590.13;5140212;27;20631;-66
2021/12/16 04:44:28;;;;;;;29.80;6.67;;;;;;;6.75;100.00;99590.50;5145625;27;20615;-66
2021/12/16 04:46:56;;;;;;;21.77;6.30;;;;;;;6.75;100.00;99586.03;5145018;27;20610;-66
2021/12/16 04:49:25;;;;;;;23.83;7.50;;;;;;;6.82;100.00;99591.38;5134246;27;20616;-66
2021/12/16 04:51:55;;;;;;;19.60;6.83;;;;;;;6.84;100.00;99595.47;5142077;27;20712;-66
2021/12/16 04:54:24;;;;;;;18.50;7.27;;;;;;;6.90;100.00;99604.50;5134027;27;20608;-65
2021/12/16 04:56:52;;;;;;;35.13;8.37;;;;;;;6.93;100.00;99599.59;5141957;27;20619;-66
2021/12/16 04:59:21;;;;;;;28.13;8.47;;;;;;;6.93;100.00;99604.91;5133701;27;20661;-65
2021/12/16 05:01:52;;;;;;;58.87;7.90;;;;;;;6.79;100.00;99597.91;5141654;27;20593;-65
2021/12/16 05:04:19;;;;;;;27.83;8.23;;;;;;;6.82;100.00;99594.03;5133520;27;20604;-66
2021/12/16 05:06:47;;;;;;;74.70;9.93;;;;;;;6.81;100.00;99595.84;5141767;27;20600;-66
2021/12/16 05:09:32;;;;;;;40.80;7.70;;;;;;;6.86;100.00;99600.59;5144542;27;20611;-66
2021/12/16 05:11:59;;;;;;;52.03;8.90;;;;;;;6.84;100.00;99606.09;5144242;27;20690;-65
2021/12/16 05:14:25;;;;;;;28.50;8.07;;;;;;;6.85;100.00;99604.25;5141643;27;20604;-66
2021/12/16 05:16:52;;;;;;;26.03;7.30;;;;;;;6.86;100.00;99603.25;5141495;27;20589;-66
2021/12/16 05:19:20;;;;;;;31.97;7.60;;;;;;;6.91;100.00;99611.44;5125189;27;20681;-66
2021/12/16 05:21:54;;;;;;;47.40;7.97;;;;;;;6.94;100.00;99606.53;5141561;27;20600;-66
2021/12/16 05:24:25;;;;;;;30.27;7.47;;;;;;;6.93;100.00;99615.50;5133159;27;20615;-66
2021/12/16 05:26:55;;;;;;;34.77;6.87;;;;;;;6.82;100.00;99608.13;5141326;27;20608;-66
2021/12/16 05:29:23;;;;;;;38.40;8.30;;;;;;;6.85;100.00;99621.00;5133333;27;20605;-66
2021/12/16 05:31:49;;;;;;;51.20;8.00;;;;;;;6.84;100.00;99626.53;5141404;27;20626;-66
2021/12/16 05:34:17;;;;;;;44.20;10.07;;;;;;;6.87;100.00;99626.13;5144552;27;20637;-66
2021/12/16 05:36:45;;;;;;;52.30;8.80;;;;;;;6.84;100.00;99626.53;5144502;27;20636;-66
2021/12/16 05:39:14;;;;;;;44.33;8.40;;;;;;;6.88;100.00;99633.91;5141698;27;20666;-66
2021/12/16 05:41:41;;;;;;;46.27;9.43;;;;;;;6.88;100.00;99630.41;5140911;27;20629;-66
2021/12/16 05:44:08;;;;;;;50.13;10.10;;;;;;;6.85;100.00;99625.50;5142792;27;20644;-66
2021/12/16 05:46:35;;;;;;;54.37;9.03;;;;;;;6.87;100.00;99628.78;5144471;27;21044;-65
2021/12/16 05:49:05;;;;;;;39.57;8.30;;;;;;;6.83;100.00;99636.34;5135158;27;20585;-65
2021/12/16 05:51:34;;;;;;;50.00;7.83;;;;;;;6.75;100.00;99633.00;5140608;27;20724;-65
2021/12/16 05:54:03;;;;;;;50.77;7.87;;;;;;;6.69;100.00;99633.78;5141129;27;20589;-66
2021/12/16 05:56:31;;;;;;;20.60;5.90;;;;;;;6.71;100.00;99629.94;5144278;27;20617;-65
2021/12/16 05:58:58;;;;;;;80.70;9.50;;;;;;;6.77;100.00;99641.59;5143361;27;20626;-65
2021/12/16 06:01:29;;;;;;;29.17;9.40;;;;;;;6.91;100.00;99651.28;5140595;27;20605;-66
2021/12/16 06:03:56;;;;;;;28.60;8.00;;;;;;;6.87;100.00;99650.03;5140975;27;20635;-66
2021/12/16 06:06:23;;;;;;;106.80;10.77;;;;;;;6.75;100.00;99649.75;5143943;27;20641;-64
2021/12/16 06:08:52;;;;;;;43.20;8.03;;;;;;;6.75;100.00;99648.94;5143776;27;20615;-65
2021/12/16 06:11:23;;;;;;;48.33;8.00;;;;;;;6.85;100.00;99657.38;5131909;27;20720;-66
2021/12/16 06:14:02;;;;;;;53.07;8.60;;;;;;;6.80;100.00;99657.16;5140310;27;20684;-66
2021/12/16 06:27:33;;;;;;;66.83;8.53;;;;;;;6.71;100.00;99663.63;5113033;27;20750;-66
2021/12/16 06:30:03;;;;;;;26.97;6.67;;;;;;;6.80;100.00;99670.44;5140927;27;20631;-66
2021/12/16 06:32:31;;;;;;;79.87;9.50;;;;;;;6.77;100.00;99669.00;5143129;27;20608;-66
2021/12/16 06:34:58;;;;;;;45.60;8.93;;;;;;;6.84;100.00;99658.41;5142360;27;20642;-66
2021/12/16 06:37:25;;;;;;;38.77;7.50;;;;;;;6.87;100.00;99663.31;5139605;27;20596;-66
2021/12/16 06:39:52;;;;;;;41.40;6.90;;;;;;;6.85;100.00;99670.66;5139360;27;20604;-65
2021/12/16 06:42:19;;;;;;;40.17;8.00;;;;;;;6.86;100.00;99672.28;5130844;27;20620;-65
2021/12/16 06:44:51;;;;;;;71.33;10.67;;;;;;;6.85;100.00;99673.31;5139518;27;21168;-65
2021/12/16 06:47:23;;;;;;;57.33;7.77;;;;;;;6.95;100.00;99666.63;5130816;27;20680;-66
2021/12/16 06:49:52;;;;;;;115.57;12.10;;;;;;;6.88;100.00;99672.91;5131459;27;20608;-66
2021/12/16 06:52:24;;;;;;;30.97;6.97;;;;;;;6.84;100.00;99677.00;5131254;27;20596;-66
2021/12/16 06:55:04;;;;;;;50.93;9.13;;;;;;;6.78;100.00;99681.22;5139472;27;20683;-66
2021/12/16 06:57:40;;;;;;;65.23;8.60;;;;;;;6.83;100.00;99678.00;5132722;27;20631;-65
2021/12/16 07:00:13;;;;;;;45.93;8.87;;;;;;;6.87;100.00;99682.72;5141198;27;20604;-66
2021/12/16 07:02:57;;;;;;;67.33;9.30;;;;;;;6.83;100.00;99683.31;5142952;27;20639;-66
2021/12/16 07:05:28;;;;;;;56.97;8.37;;;;;;;6.87;100.00;99685.38;5131204;27;20608;-65
2021/12/16 07:07:55;;;;;;;24.70;6.67;;;;;;;6.91;100.00;99691.09;5139686;27;21397;-66
2021/12/16 07:10:22;;;;;;;38.70;7.70;;;;;;;6.92;100.00;99692.75;5142638;27;20618;-65
2021/12/16 07:12:49;;;;;;;76.20;9.60;;;;;;;6.83;100.00;99693.94;5143009;27;20636;-66
2021/12/16 07:15:20;;;;;;;36.23;7.33;;;;;;;6.81;100.00;99698.59;5139295;27;20970;-67
2021/12/16 07:17:50;;;;;;;32.73;7.63;;;;;;;6.82;100.00;99702.91;5139136;27;20630;-67
2021/12/16 07:20:19;;;;;;;34.57;5.50;;;;;;;6.67;100.00;99697.72;5134567;27;20594;-66
2021/12/16 07:22:46;;;;;;;44.73;7.00;;;;;;;6.57;100.00;99689.25;5142671;27;20610;-66
2021/12/16 07:25:13;;;;;;;15.53;6.30;;;;;;;6.55;100.00;99677.19;5139757;27;20618;-66
2021/12/16 07:27:39;;;;;;;72.00;9.03;;;;;;;6.61;100.00;99689.69;5139145;27;20630;-66
2021/12/16 07:30:10;;;;;;;28.60;6.20;;;;;;;6.48;100.00;99688.59;5140695;27;20612;-66
2021/12/16 07:32:37;;;;;;;59.37;8.53;;;;;;;6.51;100.00;99690.88;5142379;27;20622;-66
2021/12/16 07:35:07;;;;;;;51.30;7.93;;;;;;;6.50;100.00;99693.69;5140735;27;20628;-66
2021/12/16 07:37:34;;;;;;;45.30;8.67;;;;;;;6.61;100.00;99695.00;5138774;27;20601;-66
2021/12/16 07:40:06;;;;;;;37.27;8.10;;;;;;;6.67;100.00;99696.88;5139970;27;20612;-65
2021/12/16 07:42:43;;;;;;;57.97;9.47;;;;;;;6.71;100.00;99703.47;5142220;27;20617;-66
2021/12/16 07:45:11;;;;;;;39.47;7.60;;;;;;;6.66;100.00;99700.56;5139911;28;20855;-66
2021/12/16 07:47:38;;;;;;;30.37;10.23;;;;;;;6.45;100.00;99718.19;5138909;28;20596;-65
2021/12/16 07:50:08;;;;;;;56.87;10.27;;;;;;;6.53;100.00;99708.44;5132256;28;20612;-66
2021/12/16 07:52:35;;;;;;;51.33;10.70;;;;;;;6.59;100.00;99712.97;5142396;28;20611;-66
2021/12/16 07:55:02;;;;;;;27.73;8.23;;;;;;;6.64;100.00;99715.84;5141075;28;20607;-66
2021/12/16 07:57:29;;;;;;;53.80;8.87;;;;;;;6.62;100.00;99710.75;5138420;28;20673;-66
2021/12/16 07:59:56;;;;;;;32.13;7.27;;;;;;;6.72;100.00;99711.22;5139251;28;20612;-66
2021/12/16 08:02:23;;;;;;;37.90;8.03;;;;;;;6.82;100.00;99718.84;5142313;28;20621;-66
2021/12/16 08:04:52;;;;;;;62.10;9.17;;;;;;;6.87;100.00;99727.06;5142095;28;20643;-65
2021/12/16 08:07:20;;;;;;;37.17;7.70;;;;;;;6.88;100.00;99728.69;5130289;28;20600;-66
2021/12/16 08:09:47;;;;;;;30.23;7.00;;;;;;;6.80;100.00;99719.06;5138683;28;20620;-65
2021/12/16 08:12:15;;;;;;;54.17;7.60;;;;;;;6.78;100.00;99723.72;5141514;28;20628;-65
2021/12/16 08:14:44;;;;;;;90.57;10.93;;;;;;;6.87;100.00;99722.53;5141994;28;20740;-65
2021/12/16 08:17:11;;;;;;;20.53;6.87;;;;;;;6.87;100.00;99727.06;5140919;27;20588;-65
2021/12/16 08:19:38;;;;;;;57.13;9.33;;;;;;;6.90;100.00;99729.31;5134556;27;20635;-66
2021/12/16 08:22:06;;;;;;;44.97;8.27;;;;;;;6.94;100.00;99736.69;5144219;27;20630;-66
2021/12/16 08:24:34;;;;;;;26.83;6.10;;;;;;;6.90;100.00;99734.66;5146011;27;20666;-66
2021/12/16 08:27:01;;;;;;;37.53;7.70;;;;;;;6.93;100.00;99742.22;5144715;27;20599;-66
2021/12/16 08:29:27;;;;;;;23.97;7.10;;;;;;;6.83;100.00;99739.09;5142332;27;20604;-65
2021/12/16 08:31:56;;;;;;;48.10;8.13;;;;;;;6.74;100.00;99746.38;5142534;27;20745;-65
2021/12/16 08:34:24;;;;;;;30.40;7.00;;;;;;;6.64;100.00;99737.94;5146031;27;20626;-66
2021/12/16 08:36:50;;;;;;;53.00;7.10;;;;;;;6.74;100.00;99738.41;5145867;27;20607;-65
2021/12/16 08:39:18;;;;;;;38.73;7.60;;;;;;;6.79;100.00;99733.34;5141818;27;20592;-66
2021/12/16 08:41:51;;;;;;;67.97;9.23;;;;;;;6.68;100.00;99738.38;5142105;27;21390;-65
2021/12/16 08:44:19;;;;;;;59.90;8.70;;;;;;;6.67;100.00;99736.72;5145319;27;20635;-65
2021/12/16 08:46:49;;;;;;;57.23;7.43;;;;;;;6.73;100.00;99742.06;5145321;27;20607;-66
2021/12/16 08:49:16;;;;;;;61.40;10.60;;;;;;;6.66;100.00;99738.53;5133939;27;20619;-66
2021/12/16 08:51:45;;;;;;;99.23;10.43;;;;;;;6.64;100.00;99740.59;5142009;27;20681;-65
2021/12/16 08:54:12;;;;;;;41.60;9.10;;;;;;;6.72;100.00;99747.56;5144395;27;21021;-66
2021/12/16 08:56:40;;;;;;;65.60;8.67;;;;;;;6.77;100.00;99750.47;5145234;27;20599;-66
2021/12/16 08:59:08;;;;;;;58.17;8.10;;;;;;;6.77;100.00;99759.28;5124830;27;20665;-65
2021/12/16 09:01:39;;;;;;;52.10;8.73;;;;;;;6.87;100.00;99770.34;5141647;27;20640;-66
2021/12/16 09:04:07;;;;;;;72.40;10.17;;;;;;;6.87;100.00;99777.53;5143112;27;20715;-66
2021/12/16 09:06:34;;;;;;;67.40;9.07;;;;;;;6.67;100.00;99782.69;5144966;27;20610;-65
2021/12/16 09:09:00;;;;;;;63.60;9.00;;;;;;;6.55;100.00;99775.41;5143769;27;20664;-66
2021/12/16 09:11:31;;;;;;;44.63;9.00;;;;;;;6.65;100.00;99781.22;5141569;27;20604;-65
2021/12/16 09:13:59;;;;;;;61.07;8.23;;;;;;;6.62;100.00;99792.25;5142272;27;20611;-66
2021/12/16 09:16:31;;;;;;;21.00;7.10;;;;;;;6.71;100.00;99781.28;5144876;27;20599;-67
2021/12/16 09:18:58;;;;;;;49.67;8.23;;;;;;;6.79;100.00;99780.31;5136240;27;20608;-65
2021/12/16 09:21:28;;;;;;;72.57;9.30;;;;;;;6.74;100.00;99785.38;5141110;27;20608;-65
2021/12/16 09:23:56;;;;;;;53.57;7.57;;;;;;;6.63;100.00;99783.25;5141215;27;20658;-66
2021/12/16 09:26:24;;;;;;;29.40;5.60;;;;;;;6.68;100.00;99791.47;5144625;27;20619;-65
2021/12/16 09:28:50;;;;;;;63.87;9.20;;;;;;;6.79;100.00;99793.59;5143760;27;20600;-65
2021/12/16 09:31:20;;;;;;;42.03;8.00;;;;;;;6.86;100.00;99805.91;5141178;27;20600;-66
2021/12/16 09:33:53;;;;;;;60.37;8.87;;;;;;;6.91;100.00;99802.66;5141037;27;20616;-66
2021/12/16 09:36:23;;;;;;;41.23;7.17;;;;;;;6.91;100.00;99800.00;5132836;27;20612;-66
2021/12/16 09:38:52;;;;;;;40.80;7.70;;;;;;;6.92;100.00;99809.63;5141177;27;20604;-66
2021/12/16 09:41:20;;;;;;;30.40;6.73;;;;;;;6.88;100.00;99787.94;5132481;27;20604;-67
2021/12/16 09:43:51;;;;;;;50.97;6.80;;;;;;;6.81;100.00;99786.22;5140974;27;20636;-66
2021/12/16 09:46:23;;;;;;;54.07;7.10;;;;;;;6.93;100.00;99790.81;5144226;27;20607;-66
2021/12/16 09:48:51;;;;;;;58.37;8.00;;;;;;;6.91;100.00;99789.38;5137423;27;20606;-66
2021/12/16 09:51:23;;;;;;;32.53;6.07;;;;;;;6.89;100.00;99794.06;5140711;27;20600;-65
2021/12/16 09:53:50;;;;;;;38.43;5.80;;;;;;;6.94;100.00;99808.41;5140807;27;20612;-67
2021/12/16 09:56:19;;;;;;;25.33;5.53;;;;;;;6.92;100.00;99804.31;5143935;27;20600;-66
2021/12/16 09:58:48;;;;;;;34.83;5.90;;;;;;;6.98;100.00;99812.34;5144327;27;20640;-66
2021/12/16 10:01:16;;;;;;;44.83;7.50;;;;;;;7.03;100.00;99806.44;5141043;27;20609;-67
2021/12/16 10:03:47;;;;;;;45.67;7.90;;;;;;;6.97;100.00;99796.56;5140351;27;20637;-66
2021/12/16 10:06:16;;;;;;;24.93;6.97;;;;;;;7.00;100.00;99793.53;5143309;27;20596;-66
2021/12/16 10:08:43;;;;;;;50.80;5.70;;;;;;;7.01;100.00;99788.03;5143883;27;20600;-66
2021/12/16 10:11:11;;;;;;;27.67;6.40;;;;;;;7.01;100.00;99781.91;5123236;27;20679;-65
2021/12/16 10:13:45;;;;;;;40.37;5.60;;;;;;;7.14;100.00;99784.66;5140319;27;20614;-66
2021/12/16 10:18:56;;;;;;;47.57;5.83;;;;;;;6.93;100.00;99752.84;5135297;27;20593;-66
2021/12/16 10:21:24;;;;;;;42.50;6.07;;;;;;;6.93;100.00;99756.28;5140189;27;20626;-66
2021/12/16 10:23:51;;;;;;;29.07;6.20;;;;;;;7.07;100.00;99766.00;5140202;27;20635;-65
2021/12/16 10:26:20;;;;;;;40.07;5.63;;;;;;;6.91;100.00;99766.31;5131559;27;20604;-66
2021/12/16 10:28:49;;;;;;;84.63;8.37;;;;;;;6.94;100.00;99760.59;5140022;27;20600;-66
2021/12/16 10:31:21;;;;;;;25.57;6.20;;;;;;;6.91;100.00;99755.69;5143052;27;20635;-66
2021/12/16 10:33:50;;;;;;;41.97;6.47;;;;;;;6.93;100.00;99761.59;5143565;27;20611;-66
2021/12/16 10:36:20;;;;;;;23.03;4.80;;;;;;;6.88;100.00;99755.25;5140005;27;20618;-66
2021/12/16 10:38:50;;;;;;;42.60;6.70;;;;;;;7.05;100.00;99768.03;5139798;27;20630;-66
2021/12/16 10:41:21;;;;;;;60.20;7.50;;;;;;;6.96;100.00;99779.00;5142627;27;20597;-66
2021/12/16 10:43:50;;;;;;;33.37;6.30;;;;;;;7.09;100.00;99770.31;5143131;27;20618;-66
2021/12/16 10:46:20;;;;;;;63.27;7.80;;;;;;;7.11;100.00;99774.41;5139702;27;20596;-67
2021/12/16 10:48:50;;;;;;;24.67;4.80;;;;;;;7.01;100.00;99777.41;5136301;27;20609;-66
2021/12/16 10:51:24;;;;;;;48.43;6.90;;;;;;;7.02;100.00;99783.56;5138891;27;20601;-66
2021/12/16 10:54:15;;;;;;;38.10;6.77;;;;;;;7.06;100.00;99782.13;5139584;27;20604;-66
2021/12/16 10:56:53;;;;;;;59.27;8.50;;;;;;;7.17;100.00;99772.81;5128771;27;20628;-66
2021/12/16 10:59:24;;;;;;;60.37;7.67;;;;;;;7.12;100.00;99777.91;5131051;27;20600;-66
2021/12/16 11:02:13;;;;;;;82.50;8.50;;;;;;;7.23;100.00;99772.84;5139326;27;20604;-67
2021/12/16 11:04:44;;;;;;;59.97;8.30;;;;;;;7.30;100.00;99765.75;5133798;27;20658;-67
2021/12/16 11:07:15;;;;;;;25.43;7.17;;;;;;;7.10;100.00;99770.09;5141378;27;20600;-66
2021/12/16 11:10:03;;;;;;;32.23;6.87;;;;;;;7.28;100.00;99773.06;5136630;27;20627;-66
2021/12/16 11:12:39;;;;;;;58.13;8.63;;;;;;;7.27;100.00;99770.63;5133142;27;20648;-65
2021/12/16 11:15:11;;;;;;;33.23;6.83;;;;;;;7.31;100.00;99769.19;5140675;27;20636;-66
2021/12/16 11:17:41;;;;;;;34.33;6.53;;;;;;;7.19;100.00;99768.09;5138903;27;20616;-66
2021/12/16 11:20:15;;;;;;;54.40;8.73;;;;;;;7.32;100.00;99771.66;5132527;27;20622;-66
2021/12/16 11:22:41;;;;;;;53.80;9.40;;;;;;;7.34;100.00;99766.97;5142643;27;20599;-65
2021/12/16 11:25:17;;;;;;;27.77;7.07;;;;;;;7.25;100.00;99762.81;5140200;27;20635;-66
2021/12/16 11:27:47;;;;;;;47.50;7.80;;;;;;;7.20;100.00;99759.13;5138842;27;20607;-66
2021/12/16 11:30:39;;;;;;;23.27;7.00;;;;;;;7.32;100.00;99770.84;5141566;27;20762;-66
2021/12/16 11:33:22;;;;;;;46.17;8.63;;;;;;;7.35;100.00;99765.97;5140275;27;20591;-67
2021/12/16 11:35:57;;;;;;;37.97;7.60;;;;;;;7.26;100.00;99759.16;5138764;27;20631;-67
2021/12/16 11:38:32;;;;;;;33.27;7.90;;;;;;;7.28;100.00;99754.47;5131323;27;20604;-65
2021/12/16 11:41:23;;;;;;;25.83;6.90;;;;;;;7.33;100.00;99762.69;5139741;27;20646;-65
2021/12/16 11:44:09;;;;;;;71.27;9.33;;;;;;;7.56;100.00;99763.19;5142028;27;20607;-65
2021/12/16 11:46:41;;;;;;;50.37;8.20;;;;;;;7.58;100.00;99769.13;5132809;28;20616;-66
2021/12/16 11:49:11;;;;;;;79.90;9.80;;;;;;;7.35;100.00;99765.97;5134736;28;20635;-65
2021/12/16 11:51:41;;;;;;;54.60;10.27;;;;;;;7.44;100.00;99764.78;5139291;27;20596;-66
2021/12/16 11:54:18;;;;;;;42.50;8.27;;;;;;;7.34;100.00;99769.63;5145290;27;20604;-66
2021/12/16 11:56:49;;;;;;;61.23;9.20;;;;;;;7.37;100.00;99763.91;5146389;27;20618;-66
2021/12/16 11:59:27;;;;;;;32.90;8.07;;;;;;;7.43;100.00;99760.47;5142896;27;20608;-66
2021/12/16 12:01:54;;;;;;;110.30;11.97;;;;;;;7.38;100.00;99754.94;5142655;27;20592;-66
2021/12/16 12:04:27;;;;;;;45.23;7.00;;;;;;;7.18;100.00;99740.72;5146090;27;20643;-65
2021/12/16 12:06:54;;;;;;;41.83;7.50;;;;;;;7.12;100.00;99746.00;5146586;27;20636;-66
2021/12/16 12:09:21;;;;;;;59.40;8.30;;;;;;;7.32;100.00;99753.06;5142496;27;20608;-66
2021/12/16 12:11:49;;;;;;;43.67;7.70;;;;;;;7.50;100.00;99748.03;5142476;27;20616;-66
2021/12/16 12:14:17;;;;;;;28.67;6.10;;;;;;;7.37;100.00;99745.31;5145622;27;20604;-66
2021/12/16 12:16:46;;;;;;;44.57;8.03;;;;;;;7.45;100.00;99742.50;5146089;27;20683;-66
2021/12/16 12:19:15;;;;;;;33.13;8.20;;;;;;;7.42;100.00;99748.22;5134923;27;20598;-66
2021/12/16 12:21:45;;;;;;;67.53;9.20;;;;;;;7.45;100.00;99742.50;5142453;27;20600;-66
2021/12/16 12:24:17;;;;;;;36.83;7.40;;;;;;;7.53;100.00;99729.03;5144743;27;20641;-65
2021/12/16 12:26:49;;;;;;;39.97;8.57;;;;;;;7.24;100.00;99737.25;5145845;27;20607;-65
2021/12/16 12:29:19;;;;;;;34.97;8.33;;;;;;;7.35;100.00;99739.38;5142455;27;20604;-65
2021/12/16 12:31:48;;;;;;;55.37;7.60;;;;;;;7.27;100.00;99742.19;5142318;27;20626;-65
2021/12/16 12:34:15;;;;;;;34.53;8.27;;;;;;;7.32;100.00;99745.09;5144954;27;20603;-65
2021/12/16 12:36:43;;;;;;;55.30;8.63;;;;;;;7.23;100.00;99737.47;5145706;27;20615;-66
2021/12/16 12:39:12;;;;;;;34.20;6.40;;;;;;;7.38;100.00;99740.81;5143250;27;20615;-66
2021/12/16 12:41:39;;;;;;;78.37;9.53;;;;;;;7.43;100.00;99728.56;5142103;27;20603;-66
2021/12/16 12:44:06;;;;;;;45.80;8.10;;;;;;;7.39;100.00;99713.22;5143625;27;20634;-65
2021/12/16 12:46:38;;;;;;;49.97;7.60;;;;;;;7.34;100.00;99711.16;5145609;27;20600;-65
2021/12/16 12:49:07;;;;;;;19.30;7.07;;;;;;;7.52;100.00;99711.41;5135506;27;20601;-66
2021/12/16 12:51:37;;;;;;;49.73;8.23;;;;;;;7.46;100.00;99712.22;5141629;27;20596;-66
2021/12/16 12:54:16;;;;;;;113.87;11.80;;;;;;;7.42;100.00;99726.13;5142954;27;20630;-66
2021/12/16 12:56:43;;;;;;;54.43;7.67;;;;;;;7.35;100.00;99726.09;5144935;27;20599;-65
2021/12/16 12:59:12;;;;;;;36.87;7.40;;;;;;;7.50;100.00;99737.41;5142810;27;20600;-65
2021/12/16 13:01:44;;;;;;;35.07;7.90;;;;;;;7.71;100.00;99747.06;5141468;27;20604;-65
2021/12/16 13:04:14;;;;;;;26.13;8.57;;;;;;;7.70;100.00;99750.78;5144108;27;20619;-66
2021/12/16 13:06:56;;;;;;;35.80;7.93;;;;;;;7.70;100.00;99745.47;5145241;27;20634;-66
2021/12/16 13:09:39;;;;;;;40.67;8.70;;;;;;;7.61;100.00;99742.13;5133347;27;20600;-65
2021/12/16 13:12:30;;;;;;;53.90;9.83;;;;;;;7.63;100.00;99754.41;5143198;27;20612;-66
2021/12/16 13:15:05;;;;;;;87.73;11.33;;;;;;;7.58;100.00;99742.53;5144380;27;20615;-65
2021/12/16 13:23:36;;;;;;;31.57;9.00;;;;;;;7.66;100.00;99744.19;5134132;27;20617;-66
2021/12/16 13:26:26;;;;;;;26.33;7.97;;;;;;;7.72;100.00;99754.03;5142160;27;20731;-65